Open Full Screen Window  High Contrast Mode
Wind Gusting 00 knots
06
May 29, 2017 9:07 AM EDT
Weather Information
Wind Direction
  230 °
Wind Speed
  06 kt (7 mph)
Wind Gust
  00 kt (0 mph)
Altimeter
29.74 in
Visibility
10 SM
Temperature
18° C
64° F
Dewpoint
11° C
52° F
Humidity
64%
1hr Rain Fall
00.00 in.
24hr Rain Fall
00.00 in.
Sky Condition
Clear
VFR

METAR KIKW 291307Z AUTO 23006KT 10SM CLR 18/11 A2974 RMK AO2 T01810105

*Background is not an actual portrayal of the airport.